sensor_id;sensor_type;location;lat;lon;timestamp;temperature;humidity
22065;DHT22;11197;53.110;8.468;2024-03-25T00:02:16;6.50;99.90
22065;DHT22;11197;53.110;8.468;2024-03-25T00:04:42;6.50;99.90
22065;DHT22;11197;53.110;8.468;2024-03-25T00:07:07;6.40;99.90
22065;DHT22;11197;53.110;8.468;2024-03-25T00:09:33;6.40;99.90
22065;DHT22;11197;53.110;8.468;2024-03-25T00:11:59;6.40;99.90
22065;DHT22;11197;53.110;8.468;2024-03-25T00:14:24;6.40;99.90
22065;DHT22;11197;53.110;8.468;2024-03-25T00:16:50;6.40;99.90
22065;DHT22;11197;53.110;8.468;2024-03-25T00:19:16;6.40;99.90
22065;DHT22;11197;53.110;8.468;2024-03-25T00:21:41;6.40;99.90
22065;DHT22;11197;53.110;8.468;2024-03-25T00:24:07;6.40;99.90
22065;DHT22;11197;53.110;8.468;2024-03-25T00:26:33;6.40;99.90
22065;DHT22;11197;53.110;8.468;2024-03-25T00:28:59;6.50;99.90
22065;DHT22;11197;53.110;8.468;2024-03-25T00:31:25;6.40;99.90
22065;DHT22;11197;53.110;8.468;2024-03-25T00:33:50;6.40;99.90
22065;DHT22;11197;53.110;8.468;2024-03-25T00:36:16;6.30;99.90
22065;DHT22;11197;53.110;8.468;2024-03-25T00:38:43;6.40;99.90
22065;DHT22;11197;53.110;8.468;2024-03-25T00:41:09;6.30;99.90
22065;DHT22;11197;53.110;8.468;2024-03-25T00:43:35;6.30;99.90
22065;DHT22;11197;53.110;8.468;2024-03-25T00:46:00;6.30;99.90
22065;DHT22;11197;53.110;8.468;2024-03-25T00:48:26;6.30;99.90
22065;DHT22;11197;53.110;8.468;2024-03-25T00:50:52;6.30;99.90
22065;DHT22;11197;53.110;8.468;2024-03-25T00:53:18;6.30;99.90
22065;DHT22;11197;53.110;8.468;2024-03-25T00:55:44;6.30;99.90
22065;DHT22;11197;53.110;8.468;2024-03-25T00:58:10;6.30;99.90
22065;DHT22;11197;53.110;8.468;2024-03-25T01:00:35;6.30;99.90
22065;DHT22;11197;53.110;8.468;2024-03-25T01:03:01;6.30;99.90
22065;DHT22;11197;53.110;8.468;2024-03-25T01:05:27;6.30;99.90
22065;DHT22;11197;53.110;8.468;2024-03-25T01:07:53;6.30;99.90
22065;DHT22;11197;53.110;8.468;2024-03-25T01:10:18;6.30;99.90
22065;DHT22;11197;53.110;8.468;2024-03-25T01:12:44;6.30;99.90
22065;DHT22;11197;53.110;8.468;2024-03-25T01:15:10;6.30;99.90
22065;DHT22;11197;53.110;8.468;2024-03-25T01:17:37;6.20;99.90
22065;DHT22;11197;53.110;8.468;2024-03-25T01:20:03;6.30;99.90
22065;DHT22;11197;53.110;8.468;2024-03-25T01:22:32;6.20;99.90
22065;DHT22;11197;53.110;8.468;2024-03-25T01:24:57;6.20;99.90
22065;DHT22;11197;53.110;8.468;2024-03-25T01:27:23;6.20;99.90
22065;DHT22;11197;53.110;8.468;2024-03-25T01:29:49;6.20;99.90
22065;DHT22;11197;53.110;8.468;2024-03-25T01:32:14;6.20;99.90
22065;DHT22;11197;53.110;8.468;2024-03-25T01:34:40;6.20;99.90
22065;DHT22;11197;53.110;8.468;2024-03-25T01:37:06;6.10;99.90
22065;DHT22;11197;53.110;8.468;2024-03-25T01:39:31;6.10;99.90
22065;DHT22;11197;53.110;8.468;2024-03-25T01:41:57;6.10;99.90
22065;DHT22;11197;53.110;8.468;2024-03-25T01:44:23;6.10;99.90
22065;DHT22;11197;53.110;8.468;2024-03-25T01:46:50;6.10;99.90
22065;DHT22;11197;53.110;8.468;2024-03-25T01:49:19;6.10;99.90
22065;DHT22;11197;53.110;8.468;2024-03-25T01:51:45;6.10;99.90
22065;DHT22;11197;53.110;8.468;2024-03-25T01:54:11;6.10;99.90
22065;DHT22;11197;53.110;8.468;2024-03-25T01:56:41;6.10;99.90
22065;DHT22;11197;53.110;8.468;2024-03-25T01:59:07;6.10;99.90
22065;DHT22;11197;53.110;8.468;2024-03-25T02:01:33;6.10;99.90
22065;DHT22;11197;53.110;8.468;2024-03-25T02:03:59;6.10;99.90
22065;DHT22;11197;53.110;8.468;2024-03-25T02:06:27;6.10;99.90
22065;DHT22;11197;53.110;8.468;2024-03-25T02:08:53;6.10;99.90
22065;DHT22;11197;53.110;8.468;2024-03-25T02:11:20;6.10;99.90
22065;DHT22;11197;53.110;8.468;2024-03-25T02:13:46;6.10;99.90
22065;DHT22;11197;53.110;8.468;2024-03-25T02:16:12;6.10;99.90
22065;DHT22;11197;53.110;8.468;2024-03-25T02:18:37;6.10;99.90
22065;DHT22;11197;53.110;8.468;2024-03-25T02:21:03;6.10;99.90
22065;DHT22;11197;53.110;8.468;2024-03-25T02:23:30;6.10;99.90
22065;DHT22;11197;53.110;8.468;2024-03-25T02:25:57;6.10;99.90
22065;DHT22;11197;53.110;8.468;2024-03-25T02:28:23;6.10;99.90
22065;DHT22;11197;53.110;8.468;2024-03-25T02:30:48;6.10;99.90
22065;DHT22;11197;53.110;8.468;2024-03-25T02:33:14;6.10;99.90
22065;DHT22;11197;53.110;8.468;2024-03-25T02:35:41;6.10;99.90
22065;DHT22;11197;53.110;8.468;2024-03-25T02:38:08;6.10;99.90
22065;DHT22;11197;53.110;8.468;2024-03-25T02:40:34;6.10;99.90
22065;DHT22;11197;53.110;8.468;2024-03-25T02:43:00;6.10;99.90
22065;DHT22;11197;53.110;8.468;2024-03-25T02:45:26;6.10;99.90
22065;DHT22;11197;53.110;8.468;2024-03-25T02:47:52;6.10;99.90
22065;DHT22;11197;53.110;8.468;2024-03-25T02:50:17;6.10;99.90
22065;DHT22;11197;53.110;8.468;2024-03-25T02:52:43;6.10;99.90
22065;DHT22;11197;53.110;8.468;2024-03-25T02:55:09;6.10;99.90
22065;DHT22;11197;53.110;8.468;2024-03-25T02:57:34;6.10;99.90
22065;DHT22;11197;53.110;8.468;2024-03-25T03:00:00;6.10;99.90
22065;DHT22;11197;53.110;8.468;2024-03-25T03:02:26;6.10;99.90
22065;DHT22;11197;53.110;8.468;2024-03-25T03:04:51;6.10;99.90
22065;DHT22;11197;53.110;8.468;2024-03-25T03:07:17;6.20;99.90
22065;DHT22;11197;53.110;8.468;2024-03-25T03:09:43;6.10;99.90
22065;DHT22;11197;53.110;8.468;2024-03-25T03:12:09;6.10;99.90
22065;DHT22;11197;53.110;8.468;2024-03-25T03:14:35;6.20;99.90
22065;DHT22;11197;53.110;8.468;2024-03-25T03:17:00;6.10;99.90
22065;DHT22;11197;53.110;8.468;2024-03-25T03:19:30;6.20;99.90
22065;DHT22;11197;53.110;8.468;2024-03-25T03:21:56;6.20;99.90
22065;DHT22;11197;53.110;8.468;2024-03-25T03:24:22;6.20;99.90
22065;DHT22;11197;53.110;8.468;2024-03-25T03:26:48;6.20;99.90
22065;DHT22;11197;53.110;8.468;2024-03-25T03:29:14;6.10;99.90
22065;DHT22;11197;53.110;8.468;2024-03-25T03:31:40;6.10;99.90
22065;DHT22;11197;53.110;8.468;2024-03-25T03:34:06;6.10;99.90
22065;DHT22;11197;53.110;8.468;2024-03-25T03:36:31;6.20;99.90
22065;DHT22;11197;53.110;8.468;2024-03-25T03:38:57;6.20;99.90
22065;DHT22;11197;53.110;8.468;2024-03-25T03:41:23;6.20;99.90
22065;DHT22;11197;53.110;8.468;2024-03-25T03:43:48;6.10;99.90
22065;DHT22;11197;53.110;8.468;2024-03-25T03:46:14;6.20;99.90
22065;DHT22;11197;53.110;8.468;2024-03-25T03:48:40;6.20;99.90
22065;DHT22;11197;53.110;8.468;2024-03-25T03:51:06;6.20;99.90
22065;DHT22;11197;53.110;8.468;2024-03-25T03:53:32;6.20;99.90
22065;DHT22;11197;53.110;8.468;2024-03-25T03:56:00;6.20;99.90
22065;DHT22;11197;53.110;8.468;2024-03-25T03:58:27;6.20;99.90
22065;DHT22;11197;53.110;8.468;2024-03-25T04:00:53;6.20;99.90
22065;DHT22;11197;53.110;8.468;2024-03-25T04:03:19;6.20;99.90
22065;DHT22;11197;53.110;8.468;2024-03-25T04:05:45;6.20;99.90
22065;DHT22;11197;53.110;8.468;2024-03-25T04:08:11;6.20;99.90
22065;DHT22;11197;53.110;8.468;2024-03-25T04:10:37;6.20;99.90
22065;DHT22;11197;53.110;8.468;2024-03-25T04:13:06;6.20;99.90
22065;DHT22;11197;53.110;8.468;2024-03-25T04:15:37;6.10;99.90
22065;DHT22;11197;53.110;8.468;2024-03-25T04:18:03;6.20;99.90
22065;DHT22;11197;53.110;8.468;2024-03-25T04:20:29;6.20;99.90
22065;DHT22;11197;53.110;8.468;2024-03-25T04:22:55;6.20;99.90
22065;DHT22;11197;53.110;8.468;2024-03-25T04:25:22;6.20;99.90
22065;DHT22;11197;53.110;8.468;2024-03-25T04:27:48;6.20;99.90
22065;DHT22;11197;53.110;8.468;2024-03-25T04:30:14;6.20;99.90
22065;DHT22;11197;53.110;8.468;2024-03-25T04:32:40;6.20;99.90
22065;DHT22;11197;53.110;8.468;2024-03-25T04:35:06;6.20;99.90
22065;DHT22;11197;53.110;8.468;2024-03-25T04:37:33;6.20;99.90
22065;DHT22;11197;53.110;8.468;2024-03-25T04:39:59;6.20;99.90
22065;DHT22;11197;53.110;8.468;2024-03-25T04:42:25;6.20;99.90
22065;DHT22;11197;53.110;8.468;2024-03-25T04:44:51;6.20;99.90
22065;DHT22;11197;53.110;8.468;2024-03-25T04:47:17;6.20;99.90
22065;DHT22;11197;53.110;8.468;2024-03-25T04:49:44;6.20;99.90
22065;DHT22;11197;53.110;8.468;2024-03-25T04:52:13;6.20;99.90
22065;DHT22;11197;53.110;8.468;2024-03-25T04:54:41;6.20;99.90
22065;DHT22;11197;53.110;8.468;2024-03-25T04:57:06;6.20;99.90
22065;DHT22;11197;53.110;8.468;2024-03-25T04:59:33;6.20;99.90
22065;DHT22;11197;53.110;8.468;2024-03-25T05:01:59;6.20;99.90
22065;DHT22;11197;53.110;8.468;2024-03-25T05:04:26;6.10;99.90
22065;DHT22;11197;53.110;8.468;2024-03-25T05:06:51;6.20;99.90
22065;DHT22;11197;53.110;8.468;2024-03-25T05:09:17;6.20;99.90
22065;DHT22;11197;53.110;8.468;2024-03-25T05:11:43;6.20;99.90
22065;DHT22;11197;53.110;8.468;2024-03-25T05:14:09;6.20;99.90
22065;DHT22;11197;53.110;8.468;2024-03-25T05:16:35;6.20;99.90
22065;DHT22;11197;53.110;8.468;2024-03-25T05:19:02;6.20;99.90
22065;DHT22;11197;53.110;8.468;2024-03-25T05:21:27;6.20;99.90
22065;DHT22;11197;53.110;8.468;2024-03-25T05:23:53;6.20;99.90
22065;DHT22;11197;53.110;8.468;2024-03-25T05:26:19;6.20;99.90
22065;DHT22;11197;53.110;8.468;2024-03-25T05:28:44;6.20;99.90
22065;DHT22;11197;53.110;8.468;2024-03-25T05:31:10;6.10;99.90
22065;DHT22;11197;53.110;8.468;2024-03-25T05:33:36;6.10;99.90
22065;DHT22;11197;53.110;8.468;2024-03-25T05:36:02;6.20;99.90
22065;DHT22;11197;53.110;8.468;2024-03-25T05:38:28;6.20;99.90
22065;DHT22;11197;53.110;8.468;2024-03-25T05:40:54;6.20;99.90
22065;DHT22;11197;53.110;8.468;2024-03-25T05:43:20;6.20;99.90
22065;DHT22;11197;53.110;8.468;2024-03-25T05:45:53;6.10;99.90
22065;DHT22;11197;53.110;8.468;2024-03-25T05:48:19;6.10;99.90
22065;DHT22;11197;53.110;8.468;2024-03-25T05:50:45;6.10;99.90
22065;DHT22;11197;53.110;8.468;2024-03-25T05:53:11;6.10;99.90
22065;DHT22;11197;53.110;8.468;2024-03-25T05:55:37;6.10;99.90
22065;DHT22;11197;53.110;8.468;2024-03-25T05:58:02;6.10;99.90
22065;DHT22;11197;53.110;8.468;2024-03-25T06:00:29;6.10;99.90
22065;DHT22;11197;53.110;8.468;2024-03-25T06:02:56;6.10;99.90
22065;DHT22;11197;53.110;8.468;2024-03-25T06:05:22;6.10;99.90
22065;DHT22;11197;53.110;8.468;2024-03-25T06:07:48;6.10;99.90
22065;DHT22;11197;53.110;8.468;2024-03-25T06:10:13;6.10;99.90
22065;DHT22;11197;53.110;8.468;2024-03-25T06:12:40;6.10;99.90
22065;DHT22;11197;53.110;8.468;2024-03-25T06:15:06;6.10;99.90
22065;DHT22;11197;53.110;8.468;2024-03-25T06:17:32;6.10;99.90
22065;DHT22;11197;53.110;8.468;2024-03-25T06:19:58;6.10;99.90
22065;DHT22;11197;53.110;8.468;2024-03-25T06:22:23;6.10;99.90
22065;DHT22;11197;53.110;8.468;2024-03-25T06:24:49;6.10;99.90
22065;DHT22;11197;53.110;8.468;2024-03-25T06:27:16;6.10;99.90
22065;DHT22;11197;53.110;8.468;2024-03-25T06:29:41;6.10;99.90
22065;DHT22;11197;53.110;8.468;2024-03-25T06:32:08;6.20;99.90
22065;DHT22;11197;53.110;8.468;2024-03-25T06:34:52;6.20;99.90
22065;DHT22;11197;53.110;8.468;2024-03-25T06:37:18;6.20;99.90
22065;DHT22;11197;53.110;8.468;2024-03-25T06:39:44;6.20;99.90
22065;DHT22;11197;53.110;8.468;2024-03-25T06:42:09;6.20;99.90
22065;DHT22;11197;53.110;8.468;2024-03-25T06:44:35;6.20;99.90
22065;DHT22;11197;53.110;8.468;2024-03-25T06:47:01;6.30;99.90
22065;DHT22;11197;53.110;8.468;2024-03-25T06:49:26;6.30;99.90
22065;DHT22;11197;53.110;8.468;2024-03-25T06:51:53;6.30;99.90
22065;DHT22;11197;53.110;8.468;2024-03-25T06:54:19;6.30;99.90
22065;DHT22;11197;53.110;8.468;2024-03-25T06:56:44;6.30;99.90
22065;DHT22;11197;53.110;8.468;2024-03-25T06:59:10;6.30;99.90
22065;DHT22;11197;53.110;8.468;2024-03-25T07:01:36;6.30;99.90
22065;DHT22;11197;53.110;8.468;2024-03-25T07:04:02;6.30;99.90
22065;DHT22;11197;53.110;8.468;2024-03-25T07:06:28;6.30;99.90
22065;DHT22;11197;53.110;8.468;2024-03-25T07:08:54;6.30;99.90
22065;DHT22;11197;53.110;8.468;2024-03-25T07:11:20;6.40;99.90
22065;DHT22;11197;53.110;8.468;2024-03-25T07:13:46;6.40;99.90
22065;DHT22;11197;53.110;8.468;2024-03-25T07:16:11;6.50;99.90
22065;DHT22;11197;53.110;8.468;2024-03-25T07:18:37;6.50;99.90
22065;DHT22;11197;53.110;8.468;2024-03-25T07:21:03;6.50;99.90
22065;DHT22;11197;53.110;8.468;2024-03-25T07:23:29;6.60;99.90
22065;DHT22;11197;53.110;8.468;2024-03-25T07:25:54;6.60;99.90
22065;DHT22;11197;53.110;8.468;2024-03-25T07:28:20;6.70;99.90
22065;DHT22;11197;53.110;8.468;2024-03-25T07:30:46;6.90;99.90
22065;DHT22;11197;53.110;8.468;2024-03-25T07:33:12;7.00;99.90
22065;DHT22;11197;53.110;8.468;2024-03-25T07:35:38;7.00;99.90
22065;DHT22;11197;53.110;8.468;2024-03-25T07:38:03;7.10;99.90
22065;DHT22;11197;53.110;8.468;2024-03-25T07:40:29;7.00;99.90
22065;DHT22;11197;53.110;8.468;2024-03-25T07:42:55;7.00;99.90
22065;DHT22;11197;53.110;8.468;2024-03-25T07:45:22;7.00;99.90
22065;DHT22;11197;53.110;8.468;2024-03-25T07:47:47;7.00;99.90
22065;DHT22;11197;53.110;8.468;2024-03-25T07:50:13;7.00;99.90
22065;DHT22;11197;53.110;8.468;2024-03-25T07:52:38;7.00;99.90
22065;DHT22;11197;53.110;8.468;2024-03-25T07:55:08;7.00;99.90
22065;DHT22;11197;53.110;8.468;2024-03-25T07:57:34;7.00;99.90
22065;DHT22;11197;53.110;8.468;2024-03-25T07:59:59;7.00;99.90
22065;DHT22;11197;53.110;8.468;2024-03-25T08:02:25;7.00;99.90
22065;DHT22;11197;53.110;8.468;2024-03-25T08:04:51;7.00;99.90
22065;DHT22;11197;53.110;8.468;2024-03-25T08:07:16;7.00;99.90
22065;DHT22;11197;53.110;8.468;2024-03-25T08:09:42;7.00;99.90
22065;DHT22;11197;53.110;8.468;2024-03-25T08:12:08;7.10;99.90
22065;DHT22;11197;53.110;8.468;2024-03-25T08:14:34;7.10;99.90
22065;DHT22;11197;53.110;8.468;2024-03-25T08:17:00;7.10;99.90
22065;DHT22;11197;53.110;8.468;2024-03-25T08:19:25;7.10;99.90
22065;DHT22;11197;53.110;8.468;2024-03-25T08:21:51;7.10;99.90
22065;DHT22;11197;53.110;8.468;2024-03-25T08:24:16;7.10;99.90
22065;DHT22;11197;53.110;8.468;2024-03-25T08:26:42;7.20;99.90
22065;DHT22;11197;53.110;8.468;2024-03-25T08:29:08;7.20;99.90
22065;DHT22;11197;53.110;8.468;2024-03-25T08:31:33;7.40;99.90
22065;DHT22;11197;53.110;8.468;2024-03-25T08:33:59;7.60;99.90
22065;DHT22;11197;53.110;8.468;2024-03-25T08:36:25;7.70;99.90
22065;DHT22;11197;53.110;8.468;2024-03-25T08:38:50;8.20;99.90
22065;DHT22;11197;53.110;8.468;2024-03-25T08:41:16;8.40;99.90
22065;DHT22;11197;53.110;8.468;2024-03-25T08:43:42;8.50;99.90
22065;DHT22;11197;53.110;8.468;2024-03-25T08:46:07;8.50;99.90
22065;DHT22;11197;53.110;8.468;2024-03-25T08:48:33;8.50;99.90
22065;DHT22;11197;53.110;8.468;2024-03-25T08:50:59;8.40;99.90
22065;DHT22;11197;53.110;8.468;2024-03-25T08:53:24;8.30;99.90
22065;DHT22;11197;53.110;8.468;2024-03-25T08:55:50;8.20;99.90
22065;DHT22;11197;53.110;8.468;2024-03-25T08:58:16;8.20;99.90
22065;DHT22;11197;53.110;8.468;2024-03-25T09:00:42;8.10;99.90
22065;DHT22;11197;53.110;8.468;2024-03-25T09:03:08;8.10;99.90
22065;DHT22;11197;53.110;8.468;2024-03-25T09:05:34;8.10;99.90
22065;DHT22;11197;53.110;8.468;2024-03-25T09:08:01;8.10;99.90
22065;DHT22;11197;53.110;8.468;2024-03-25T09:10:27;8.10;99.90
22065;DHT22;11197;53.110;8.468;2024-03-25T09:13:10;8.10;99.90
22065;DHT22;11197;53.110;8.468;2024-03-25T09:15:36;8.10;99.90
22065;DHT22;11197;53.110;8.468;2024-03-25T09:18:02;8.10;99.90
22065;DHT22;11197;53.110;8.468;2024-03-25T09:20:28;8.10;99.90
22065;DHT22;11197;53.110;8.468;2024-03-25T09:22:54;8.10;99.90
22065;DHT22;11197;53.110;8.468;2024-03-25T09:25:20;8.10;99.90
22065;DHT22;11197;53.110;8.468;2024-03-25T09:27:46;8.10;99.90
22065;DHT22;11197;53.110;8.468;2024-03-25T09:30:13;8.10;99.90
22065;DHT22;11197;53.110;8.468;2024-03-25T09:32:39;8.20;99.90
22065;DHT22;11197;53.110;8.468;2024-03-25T09:35:05;8.30;99.90
22065;DHT22;11197;53.110;8.468;2024-03-25T09:37:31;8.30;99.90
22065;DHT22;11197;53.110;8.468;2024-03-25T09:39:57;8.30;99.90
22065;DHT22;11197;53.110;8.468;2024-03-25T09:42:33;8.30;99.90
22065;DHT22;11197;53.110;8.468;2024-03-25T09:44:59;8.30;99.90
22065;DHT22;11197;53.110;8.468;2024-03-25T09:47:26;8.30;99.90
22065;DHT22;11197;53.110;8.468;2024-03-25T09:49:52;8.40;99.90
22065;DHT22;11197;53.110;8.468;2024-03-25T09:52:19;8.40;99.90
22065;DHT22;11197;53.110;8.468;2024-03-25T09:54:45;8.40;99.90
22065;DHT22;11197;53.110;8.468;2024-03-25T09:57:12;8.40;99.90
22065;DHT22;11197;53.110;8.468;2024-03-25T09:59:39;8.50;99.90
22065;DHT22;11197;53.110;8.468;2024-03-25T10:02:05;8.50;99.90
22065;DHT22;11197;53.110;8.468;2024-03-25T10:04:32;8.60;99.90
22065;DHT22;11197;53.110;8.468;2024-03-25T10:06:58;8.60;99.90
22065;DHT22;11197;53.110;8.468;2024-03-25T10:09:24;8.50;99.90
22065;DHT22;11197;53.110;8.468;2024-03-25T10:11:51;8.50;99.90
22065;DHT22;11197;53.110;8.468;2024-03-25T10:14:18;8.50;99.90
22065;DHT22;11197;53.110;8.468;2024-03-25T10:16:48;8.50;99.90
22065;DHT22;11197;53.110;8.468;2024-03-25T10:19:14;8.50;99.90
22065;DHT22;11197;53.110;8.468;2024-03-25T10:21:40;8.60;99.90
22065;DHT22;11197;53.110;8.468;2024-03-25T10:24:06;8.60;99.90
22065;DHT22;11197;53.110;8.468;2024-03-25T10:26:33;8.60;99.90
22065;DHT22;11197;53.110;8.468;2024-03-25T10:29:07;8.60;99.90
22065;DHT22;11197;53.110;8.468;2024-03-25T10:31:33;8.60;99.90
22065;DHT22;11197;53.110;8.468;2024-03-25T10:34:00;8.60;99.90
22065;DHT22;11197;53.110;8.468;2024-03-25T10:36:25;8.60;99.90
22065;DHT22;11197;53.110;8.468;2024-03-25T10:38:55;8.60;99.90
22065;DHT22;11197;53.110;8.468;2024-03-25T10:41:22;8.60;99.90
22065;DHT22;11197;53.110;8.468;2024-03-25T10:43:49;8.60;99.90
22065;DHT22;11197;53.110;8.468;2024-03-25T10:46:22;8.60;99.90
22065;DHT22;11197;53.110;8.468;2024-03-25T10:48:56;8.70;99.90
22065;DHT22;11197;53.110;8.468;2024-03-25T10:51:26;8.70;99.90
22065;DHT22;11197;53.110;8.468;2024-03-25T10:53:53;8.80;99.90
22065;DHT22;11197;53.110;8.468;2024-03-25T10:56:22;8.80;99.90
22065;DHT22;11197;53.110;8.468;2024-03-25T10:58:49;8.90;99.90
22065;DHT22;11197;53.110;8.468;2024-03-25T11:01:17;8.80;99.90
22065;DHT22;11197;53.110;8.468;2024-03-25T11:03:43;8.90;99.90
22065;DHT22;11197;53.110;8.468;2024-03-25T11:06:10;8.90;99.90
22065;DHT22;11197;53.110;8.468;2024-03-25T11:08:36;9.00;99.90
22065;DHT22;11197;53.110;8.468;2024-03-25T11:11:02;9.00;99.90
22065;DHT22;11197;53.110;8.468;2024-03-25T11:13:28;9.00;99.90
22065;DHT22;11197;53.110;8.468;2024-03-25T11:15:55;9.10;99.90
22065;DHT22;11197;53.110;8.468;2024-03-25T11:18:24;9.10;99.90
22065;DHT22;11197;53.110;8.468;2024-03-25T11:21:02;9.20;99.90
22065;DHT22;11197;53.110;8.468;2024-03-25T11:23:40;9.30;99.90
22065;DHT22;11197;53.110;8.468;2024-03-25T11:26:20;9.30;99.90
22065;DHT22;11197;53.110;8.468;2024-03-25T11:28:46;9.30;99.90
22065;DHT22;11197;53.110;8.468;2024-03-25T11:31:12;9.30;99.90
22065;DHT22;11197;53.110;8.468;2024-03-25T11:33:41;9.30;99.90
22065;DHT22;11197;53.110;8.468;2024-03-25T11:36:07;9.40;99.90
22065;DHT22;11197;53.110;8.468;2024-03-25T11:38:33;9.50;99.90
22065;DHT22;11197;53.110;8.468;2024-03-25T11:41:00;9.50;99.90
22065;DHT22;11197;53.110;8.468;2024-03-25T11:43:25;9.50;99.90
22065;DHT22;11197;53.110;8.468;2024-03-25T11:45:51;9.50;99.90
22065;DHT22;11197;53.110;8.468;2024-03-25T11:48:18;9.50;99.90
22065;DHT22;11197;53.110;8.468;2024-03-25T11:50:47;9.70;99.90
22065;DHT22;11197;53.110;8.468;2024-03-25T11:53:16;9.80;99.90
22065;DHT22;11197;53.110;8.468;2024-03-25T11:55:48;9.80;99.90
22065;DHT22;11197;53.110;8.468;2024-03-25T11:58:15;9.80;99.90
22065;DHT22;11197;53.110;8.468;2024-03-25T12:00:47;9.80;99.90
22065;DHT22;11197;53.110;8.468;2024-03-25T12:03:18;9.80;99.90
22065;DHT22;11197;53.110;8.468;2024-03-25T12:05:44;9.90;99.90
22065;DHT22;11197;53.110;8.468;2024-03-25T12:08:10;9.90;99.90
22065;DHT22;11197;53.110;8.468;2024-03-25T12:10:38;9.90;99.90
22065;DHT22;11197;53.110;8.468;2024-03-25T12:13:23;10.00;99.90
22065;DHT22;11197;53.110;8.468;2024-03-25T12:15:50;10.00;99.90
22065;DHT22;11197;53.110;8.468;2024-03-25T12:18:17;10.10;99.90
22065;DHT22;11197;53.110;8.468;2024-03-25T12:20:48;10.10;99.90
22065;DHT22;11197;53.110;8.468;2024-03-25T12:23:14;10.10;99.90
22065;DHT22;11197;53.110;8.468;2024-03-25T12:25:40;10.10;99.90
22065;DHT22;11197;53.110;8.468;2024-03-25T12:28:09;10.00;99.90
22065;DHT22;11197;53.110;8.468;2024-03-25T12:30:54;9.90;99.90
22065;DHT22;11197;53.110;8.468;2024-03-25T12:33:23;10.00;99.90
22065;DHT22;11197;53.110;8.468;2024-03-25T12:35:50;10.00;99.90
22065;DHT22;11197;53.110;8.468;2024-03-25T12:38:27;10.10;99.90
22065;DHT22;11197;53.110;8.468;2024-03-25T12:40:54;10.00;99.90
22065;DHT22;11197;53.110;8.468;2024-03-25T12:43:31;10.00;99.90
22065;DHT22;11197;53.110;8.468;2024-03-25T12:45:57;10.10;99.90
22065;DHT22;11197;53.110;8.468;2024-03-25T12:48:24;10.10;99.90
22065;DHT22;11197;53.110;8.468;2024-03-25T12:50:50;10.00;99.90
22065;DHT22;11197;53.110;8.468;2024-03-25T12:53:18;10.00;99.90
22065;DHT22;11197;53.110;8.468;2024-03-25T12:55:47;10.10;99.90
22065;DHT22;11197;53.110;8.468;2024-03-25T12:58:14;10.00;99.90
22065;DHT22;11197;53.110;8.468;2024-03-25T13:00:40;10.00;99.90
22065;DHT22;11197;53.110;8.468;2024-03-25T13:03:09;10.00;99.90
22065;DHT22;11197;53.110;8.468;2024-03-25T13:05:35;9.90;99.90
22065;DHT22;11197;53.110;8.468;2024-03-25T13:08:02;10.00;99.90
22065;DHT22;11197;53.110;8.468;2024-03-25T13:10:29;10.00;99.90
22065;DHT22;11197;53.110;8.468;2024-03-25T13:12:55;10.00;99.90
22065;DHT22;11197;53.110;8.468;2024-03-25T13:15:21;10.00;99.90
22065;DHT22;11197;53.110;8.468;2024-03-25T13:17:48;10.10;99.90
22065;DHT22;11197;53.110;8.468;2024-03-25T13:20:13;10.10;99.90
22065;DHT22;11197;53.110;8.468;2024-03-25T13:22:39;10.10;99.90
22065;DHT22;11197;53.110;8.468;2024-03-25T13:25:06;10.10;99.90
22065;DHT22;11197;53.110;8.468;2024-03-25T13:27:32;10.20;99.90
22065;DHT22;11197;53.110;8.468;2024-03-25T13:29:58;10.20;99.90
22065;DHT22;11197;53.110;8.468;2024-03-25T13:32:23;10.20;99.90
22065;DHT22;11197;53.110;8.468;2024-03-25T13:34:50;10.30;99.90
22065;DHT22;11197;53.110;8.468;2024-03-25T13:37:16;10.30;99.90
22065;DHT22;11197;53.110;8.468;2024-03-25T13:39:41;10.30;99.90
22065;DHT22;11197;53.110;8.468;2024-03-25T13:42:07;10.40;99.90
22065;DHT22;11197;53.110;8.468;2024-03-25T13:44:33;10.40;99.90
22065;DHT22;11197;53.110;8.468;2024-03-25T13:46:58;10.40;99.90
22065;DHT22;11197;53.110;8.468;2024-03-25T13:49:24;10.40;99.90
22065;DHT22;11197;53.110;8.468;2024-03-25T13:51:57;10.50;99.90
22065;DHT22;11197;53.110;8.468;2024-03-25T13:54:27;10.40;99.90
22065;DHT22;11197;53.110;8.468;2024-03-25T13:56:53;10.50;99.90
22065;DHT22;11197;53.110;8.468;2024-03-25T13:59:19;10.50;99.90
22065;DHT22;11197;53.110;8.468;2024-03-25T14:01:45;10.50;99.90
22065;DHT22;11197;53.110;8.468;2024-03-25T14:04:10;10.50;99.90
22065;DHT22;11197;53.110;8.468;2024-03-25T14:06:36;10.50;99.90
22065;DHT22;11197;53.110;8.468;2024-03-25T14:09:03;10.60;99.90
22065;DHT22;11197;53.110;8.468;2024-03-25T14:11:34;10.50;99.90
22065;DHT22;11197;53.110;8.468;2024-03-25T14:14:00;10.50;99.90
22065;DHT22;11197;53.110;8.468;2024-03-25T14:16:27;10.50;99.90
22065;DHT22;11197;53.110;8.468;2024-03-25T14:18:53;10.60;99.90
22065;DHT22;11197;53.110;8.468;2024-03-25T14:21:18;10.60;99.90
22065;DHT22;11197;53.110;8.468;2024-03-25T14:23:44;10.60;99.90
22065;DHT22;11197;53.110;8.468;2024-03-25T14:26:12;10.60;99.90
22065;DHT22;11197;53.110;8.468;2024-03-25T14:28:38;10.50;99.90
22065;DHT22;11197;53.110;8.468;2024-03-25T14:31:05;10.50;99.90
22065;DHT22;11197;53.110;8.468;2024-03-25T14:33:31;10.50;99.90
22065;DHT22;11197;53.110;8.468;2024-03-25T14:35:57;10.40;99.90
22065;DHT22;11197;53.110;8.468;2024-03-25T14:38:22;10.30;99.90
22065;DHT22;11197;53.110;8.468;2024-03-25T14:40:48;10.20;99.90
22065;DHT22;11197;53.110;8.468;2024-03-25T14:43:14;10.20;99.90
22065;DHT22;11197;53.110;8.468;2024-03-25T14:45:41;10.20;99.90
22065;DHT22;11197;53.110;8.468;2024-03-25T14:48:07;10.20;99.90
22065;DHT22;11197;53.110;8.468;2024-03-25T14:50:32;10.20;99.90
22065;DHT22;11197;53.110;8.468;2024-03-25T14:52:58;10.20;99.90
22065;DHT22;11197;53.110;8.468;2024-03-25T14:55:23;10.30;99.90
22065;DHT22;11197;53.110;8.468;2024-03-25T14:57:49;10.50;99.90
22065;DHT22;11197;53.110;8.468;2024-03-25T15:00:15;10.50;99.90
22065;DHT22;11197;53.110;8.468;2024-03-25T15:02:41;10.50;99.90
22065;DHT22;11197;53.110;8.468;2024-03-25T15:05:06;10.50;99.90
22065;DHT22;11197;53.110;8.468;2024-03-25T15:07:32;10.40;99.90
22065;DHT22;11197;53.110;8.468;2024-03-25T15:09:58;10.30;99.90
22065;DHT22;11197;53.110;8.468;2024-03-25T15:12:23;10.20;99.90
22065;DHT22;11197;53.110;8.468;2024-03-25T15:14:52;10.00;99.90
22065;DHT22;11197;53.110;8.468;2024-03-25T15:17:17;10.00;99.90
22065;DHT22;11197;53.110;8.468;2024-03-25T15:19:43;9.90;99.90
22065;DHT22;11197;53.110;8.468;2024-03-25T15:22:10;9.90;99.90
22065;DHT22;11197;53.110;8.468;2024-03-25T15:24:36;9.90;99.90
22065;DHT22;11197;53.110;8.468;2024-03-25T15:27:02;9.80;99.90
22065;DHT22;11197;53.110;8.468;2024-03-25T15:29:27;9.90;99.90
22065;DHT22;11197;53.110;8.468;2024-03-25T15:31:53;9.90;99.90
22065;DHT22;11197;53.110;8.468;2024-03-25T15:34:19;9.90;99.90
22065;DHT22;11197;53.110;8.468;2024-03-25T15:36:45;10.00;99.90
22065;DHT22;11197;53.110;8.468;2024-03-25T15:39:11;10.00;99.90